sensor_id;sensor_type;location;lat;lon;timestamp;P1;durP1;ratioP1;P2;durP2;ratioP2
37267;SDS011;23154;52.542;13.362;2024-03-07T00:00:16;133.88;;;47.22;;
37267;SDS011;23154;52.542;13.362;2024-03-07T00:02:43;130.57;;;44.85;;
37267;SDS011;23154;52.542;13.362;2024-03-07T00:05:09;138.05;;;45.47;;
37267;SDS011;23154;52.542;13.362;2024-03-07T00:07:36;130.68;;;48.22;;
37267;SDS011;23154;52.542;13.362;2024-03-07T00:10:02;133.07;;;47.47;;
37267;SDS011;23154;52.542;13.362;2024-03-07T00:12:32;137.32;;;49.10;;
37267;SDS011;23154;52.542;13.362;2024-03-07T00:14:57;133.93;;;48.63;;
37267;SDS011;23154;52.542;13.362;2024-03-07T00:17:23;129.85;;;45.97;;
37267;SDS011;23154;52.542;13.362;2024-03-07T00:19:50;131.93;;;47.53;;
37267;SDS011;23154;52.542;13.362;2024-03-07T00:22:16;143.10;;;47.33;;
37267;SDS011;23154;52.542;13.362;2024-03-07T00:24:42;143.07;;;47.80;;
37267;SDS011;23154;52.542;13.362;2024-03-07T00:27:08;123.18;;;45.80;;
37267;SDS011;23154;52.542;13.362;2024-03-07T00:29:34;137.32;;;48.17;;
37267;SDS011;23154;52.542;13.362;2024-03-07T00:32:02;137.32;;;46.65;;
37267;SDS011;23154;52.542;13.362;2024-03-07T00:34:28;143.10;;;49.33;;
37267;SDS011;23154;52.542;13.362;2024-03-07T00:36:54;140.20;;;47.00;;
37267;SDS011;23154;52.542;13.362;2024-03-07T00:39:23;133.73;;;44.30;;
37267;SDS011;23154;52.542;13.362;2024-03-07T00:41:49;140.18;;;44.58;;
37267;SDS011;23154;52.542;13.362;2024-03-07T00:44:15;130.68;;;46.10;;
37267;SDS011;23154;52.542;13.362;2024-03-07T00:46:41;121.95;;;43.88;;
37267;SDS011;23154;52.542;13.362;2024-03-07T00:49:07;122.03;;;43.67;;
37267;SDS011;23154;52.542;13.362;2024-03-07T00:51:33;127.32;;;45.17;;
37267;SDS011;23154;52.542;13.362;2024-03-07T00:53:59;139.48;;;45.90;;
37267;SDS011;23154;52.542;13.362;2024-03-07T00:56:25;124.85;;;45.42;;
37267;SDS011;23154;52.542;13.362;2024-03-07T00:58:52;118.93;;;42.22;;
37267;SDS011;23154;52.542;13.362;2024-03-07T01:01:18;138.20;;;46.95;;
37267;SDS011;23154;52.542;13.362;2024-03-07T01:03:44;114.93;;;45.08;;
37267;SDS011;23154;52.542;13.362;2024-03-07T01:06:10;127.68;;;46.25;;
37267;SDS011;23154;52.542;13.362;2024-03-07T01:08:37;133.75;;;47.00;;
37267;SDS011;23154;52.542;13.362;2024-03-07T01:11:03;121.65;;;44.25;;
37267;SDS011;23154;52.542;13.362;2024-03-07T01:13:37;113.80;;;42.53;;
37267;SDS011;23154;52.542;13.362;2024-03-07T01:16:03;127.78;;;43.47;;
37267;SDS011;23154;52.542;13.362;2024-03-07T01:18:29;140.75;;;46.58;;
37267;SDS011;23154;52.542;13.362;2024-03-07T01:20:58;125.03;;;44.83;;
37267;SDS011;23154;52.542;13.362;2024-03-07T01:23:24;125.50;;;43.58;;
37267;SDS011;23154;52.542;13.362;2024-03-07T01:25:50;120.35;;;41.80;;
37267;SDS011;23154;52.542;13.362;2024-03-07T01:28:16;125.72;;;43.03;;
37267;SDS011;23154;52.542;13.362;2024-03-07T01:30:43;109.47;;;41.20;;
37267;SDS011;23154;52.542;13.362;2024-03-07T01:33:09;119.15;;;43.70;;
37267;SDS011;23154;52.542;13.362;2024-03-07T01:35:35;114.78;;;43.38;;
37267;SDS011;23154;52.542;13.362;2024-03-07T01:38:01;112.32;;;42.08;;
37267;SDS011;23154;52.542;13.362;2024-03-07T01:40:28;114.50;;;42.53;;
37267;SDS011;23154;52.542;13.362;2024-03-07T01:42:54;117.32;;;43.40;;
37267;SDS011;23154;52.542;13.362;2024-03-07T01:45:20;110.45;;;43.00;;
37267;SDS011;23154;52.542;13.362;2024-03-07T01:47:47;118.75;;;44.13;;
37267;SDS011;23154;52.542;13.362;2024-03-07T01:50:13;115.00;;;41.30;;
37267;SDS011;23154;52.542;13.362;2024-03-07T01:52:40;108.78;;;44.88;;
37267;SDS011;23154;52.542;13.362;2024-03-07T01:55:07;106.82;;;42.92;;
37267;SDS011;23154;52.542;13.362;2024-03-07T01:57:35;116.10;;;45.40;;
37267;SDS011;23154;52.542;13.362;2024-03-07T02:00:01;115.65;;;44.40;;
37267;SDS011;23154;52.542;13.362;2024-03-07T02:02:31;113.82;;;42.90;;
37267;SDS011;23154;52.542;13.362;2024-03-07T02:04:57;103.95;;;41.70;;
37267;SDS011;23154;52.542;13.362;2024-03-07T02:07:23;109.82;;;41.70;;
37267;SDS011;23154;52.542;13.362;2024-03-07T02:09:49;101.82;;;40.70;;
37267;SDS011;23154;52.542;13.362;2024-03-07T02:12:15;114.97;;;43.38;;
37267;SDS011;23154;52.542;13.362;2024-03-07T02:14:41;113.88;;;43.20;;
37267;SDS011;23154;52.542;13.362;2024-03-07T02:17:07;109.75;;;43.10;;
37267;SDS011;23154;52.542;13.362;2024-03-07T02:19:33;112.90;;;42.53;;
37267;SDS011;23154;52.542;13.362;2024-03-07T02:21:59;111.38;;;44.50;;
37267;SDS011;23154;52.542;13.362;2024-03-07T02:24:25;112.07;;;43.97;;
37267;SDS011;23154;52.542;13.362;2024-03-07T02:26:51;118.72;;;43.15;;
37267;SDS011;23154;52.542;13.362;2024-03-07T02:29:17;114.45;;;44.25;;
37267;SDS011;23154;52.542;13.362;2024-03-07T02:31:44;117.28;;;44.80;;
37267;SDS011;23154;52.542;13.362;2024-03-07T02:34:10;111.93;;;43.65;;
37267;SDS011;23154;52.542;13.362;2024-03-07T02:36:36;125.53;;;43.03;;
37267;SDS011;23154;52.542;13.362;2024-03-07T02:39:02;113.22;;;45.58;;
37267;SDS011;23154;52.542;13.362;2024-03-07T02:41:29;115.93;;;43.58;;
37267;SDS011;23154;52.542;13.362;2024-03-07T02:43:55;113.32;;;45.75;;
37267;SDS011;23154;52.542;13.362;2024-03-07T02:46:21;116.93;;;46.22;;
37267;SDS011;23154;52.542;13.362;2024-03-07T02:48:47;117.40;;;46.60;;
37267;SDS011;23154;52.542;13.362;2024-03-07T02:51:13;117.30;;;46.17;;
37267;SDS011;23154;52.542;13.362;2024-03-07T02:53:39;130.02;;;47.63;;
37267;SDS011;23154;52.542;13.362;2024-03-07T02:56:05;123.88;;;47.08;;
37267;SDS011;23154;52.542;13.362;2024-03-07T02:58:34;119.20;;;49.85;;
37267;SDS011;23154;52.542;13.362;2024-03-07T03:01:00;132.55;;;48.42;;
37267;SDS011;23154;52.542;13.362;2024-03-07T03:03:28;117.07;;;47.28;;
37267;SDS011;23154;52.542;13.362;2024-03-07T03:05:56;128.48;;;48.78;;
37267;SDS011;23154;52.542;13.362;2024-03-07T03:08:22;119.65;;;46.72;;
37267;SDS011;23154;52.542;13.362;2024-03-07T03:10:49;121.40;;;49.10;;
37267;SDS011;23154;52.542;13.362;2024-03-07T03:13:18;132.75;;;48.80;;
37267;SDS011;23154;52.542;13.362;2024-03-07T03:15:44;117.32;;;47.53;;
37267;SDS011;23154;52.542;13.362;2024-03-07T03:18:10;135.10;;;50.67;;
37267;SDS011;23154;52.542;13.362;2024-03-07T03:20:37;126.88;;;48.78;;
37267;SDS011;23154;52.542;13.362;2024-03-07T03:23:04;130.80;;;50.15;;
37267;SDS011;23154;52.542;13.362;2024-03-07T03:25:30;131.23;;;50.70;;
37267;SDS011;23154;52.542;13.362;2024-03-07T03:28:00;119.67;;;48.10;;
37267;SDS011;23154;52.542;13.362;2024-03-07T03:30:26;124.32;;;48.03;;
37267;SDS011;23154;52.542;13.362;2024-03-07T03:32:52;126.68;;;50.13;;
37267;SDS011;23154;52.542;13.362;2024-03-07T03:35:18;137.15;;;50.70;;
37267;SDS011;23154;52.542;13.362;2024-03-07T03:37:44;124.47;;;48.85;;
37267;SDS011;23154;52.542;13.362;2024-03-07T03:40:11;125.53;;;49.80;;
37267;SDS011;23154;52.542;13.362;2024-03-07T03:42:40;145.88;;;50.15;;
37267;SDS011;23154;52.542;13.362;2024-03-07T03:45:07;130.60;;;50.97;;
37267;SDS011;23154;52.542;13.362;2024-03-07T03:47:37;127.13;;;50.70;;
37267;SDS011;23154;52.542;13.362;2024-03-07T03:50:07;128.70;;;50.78;;
37267;SDS011;23154;52.542;13.362;2024-03-07T03:55:03;125.68;;;47.90;;
37267;SDS011;23154;52.542;13.362;2024-03-07T03:57:34;115.65;;;48.58;;
37267;SDS011;23154;52.542;13.362;2024-03-07T04:00:00;134.45;;;50.17;;
37267;SDS011;23154;52.542;13.362;2024-03-07T04:02:29;131.75;;;47.13;;
37267;SDS011;23154;52.542;13.362;2024-03-07T04:04:55;131.68;;;51.30;;
37267;SDS011;23154;52.542;13.362;2024-03-07T04:07:21;130.07;;;47.92;;
37267;SDS011;23154;52.542;13.362;2024-03-07T04:09:47;117.75;;;47.92;;
37267;SDS011;23154;52.542;13.362;2024-03-07T04:12:13;117.40;;;46.70;;
37267;SDS011;23154;52.542;13.362;2024-03-07T04:14:40;131.30;;;48.15;;
37267;SDS011;23154;52.542;13.362;2024-03-07T04:17:06;108.13;;;44.97;;
37267;SDS011;23154;52.542;13.362;2024-03-07T04:19:34;107.38;;;45.95;;
37267;SDS011;23154;52.542;13.362;2024-03-07T04:22:01;107.50;;;47.40;;
37267;SDS011;23154;52.542;13.362;2024-03-07T04:24:29;107.25;;;46.47;;
37267;SDS011;23154;52.542;13.362;2024-03-07T04:26:57;132.70;;;48.33;;
37267;SDS011;23154;52.542;13.362;2024-03-07T04:29:23;102.65;;;45.90;;
37267;SDS011;23154;52.542;13.362;2024-03-07T04:31:50;109.70;;;46.83;;
37267;SDS011;23154;52.542;13.362;2024-03-07T04:34:16;97.30;;;42.95;;
37267;SDS011;23154;52.542;13.362;2024-03-07T04:36:42;106.55;;;44.72;;
37267;SDS011;23154;52.542;13.362;2024-03-07T04:39:08;102.80;;;45.42;;
37267;SDS011;23154;52.542;13.362;2024-03-07T04:41:47;94.50;;;44.67;;
37267;SDS011;23154;52.542;13.362;2024-03-07T04:44:13;95.70;;;43.60;;
37267;SDS011;23154;52.542;13.362;2024-03-07T04:46:39;106.57;;;45.95;;
37267;SDS011;23154;52.542;13.362;2024-03-07T04:49:08;96.82;;;45.00;;
37267;SDS011;23154;52.542;13.362;2024-03-07T04:51:34;104.47;;;44.95;;
37267;SDS011;23154;52.542;13.362;2024-03-07T04:54:00;103.72;;;43.72;;
37267;SDS011;23154;52.542;13.362;2024-03-07T04:56:26;90.80;;;42.75;;
37267;SDS011;23154;52.542;13.362;2024-03-07T04:58:52;102.35;;;43.30;;
37267;SDS011;23154;52.542;13.362;2024-03-07T05:01:19;99.43;;;43.45;;
37267;SDS011;23154;52.542;13.362;2024-03-07T05:03:45;94.60;;;42.65;;
37267;SDS011;23154;52.542;13.362;2024-03-07T05:06:11;99.75;;;43.28;;
37267;SDS011;23154;52.542;13.362;2024-03-07T05:08:37;88.43;;;43.08;;
37267;SDS011;23154;52.542;13.362;2024-03-07T05:11:03;85.82;;;42.08;;
37267;SDS011;23154;52.542;13.362;2024-03-07T05:13:29;91.70;;;41.80;;
37267;SDS011;23154;52.542;13.362;2024-03-07T05:15:56;88.95;;;42.63;;
37267;SDS011;23154;52.542;13.362;2024-03-07T05:18:22;84.35;;;40.42;;
37267;SDS011;23154;52.542;13.362;2024-03-07T05:20:49;94.63;;;42.35;;
37267;SDS011;23154;52.542;13.362;2024-03-07T05:23:15;89.90;;;42.65;;
37267;SDS011;23154;52.542;13.362;2024-03-07T05:25:41;88.65;;;42.00;;
37267;SDS011;23154;52.542;13.362;2024-03-07T05:28:10;80.90;;;39.67;;
37267;SDS011;23154;52.542;13.362;2024-03-07T05:30:36;89.57;;;39.33;;
37267;SDS011;23154;52.542;13.362;2024-03-07T05:33:03;89.53;;;41.55;;
37267;SDS011;23154;52.542;13.362;2024-03-07T05:35:29;88.65;;;40.42;;
37267;SDS011;23154;52.542;13.362;2024-03-07T05:37:55;83.55;;;40.25;;
37267;SDS011;23154;52.542;13.362;2024-03-07T05:40:21;85.13;;;41.28;;
37267;SDS011;23154;52.542;13.362;2024-03-07T05:42:48;93.68;;;42.05;;
37267;SDS011;23154;52.542;13.362;2024-03-07T05:45:14;87.13;;;41.97;;
37267;SDS011;23154;52.542;13.362;2024-03-07T05:47:42;81.15;;;39.88;;
37267;SDS011;23154;52.542;13.362;2024-03-07T05:50:08;87.68;;;39.97;;
37267;SDS011;23154;52.542;13.362;2024-03-07T05:52:35;83.88;;;40.70;;
37267;SDS011;23154;52.542;13.362;2024-03-07T05:55:02;90.32;;;42.67;;
37267;SDS011;23154;52.542;13.362;2024-03-07T05:57:28;84.85;;;42.42;;
37267;SDS011;23154;52.542;13.362;2024-03-07T05:59:54;80.85;;;40.63;;
37267;SDS011;23154;52.542;13.362;2024-03-07T06:02:21;85.13;;;41.55;;
37267;SDS011;23154;52.542;13.362;2024-03-07T06:04:47;78.93;;;39.17;;
37267;SDS011;23154;52.542;13.362;2024-03-07T06:07:13;91.40;;;42.72;;
37267;SDS011;23154;52.542;13.362;2024-03-07T06:09:39;84.93;;;40.42;;
37267;SDS011;23154;52.542;13.362;2024-03-07T06:12:06;85.75;;;41.45;;
37267;SDS011;23154;52.542;13.362;2024-03-07T06:14:33;85.40;;;42.42;;
37267;SDS011;23154;52.542;13.362;2024-03-07T06:16:59;85.03;;;41.40;;
37267;SDS011;23154;52.542;13.362;2024-03-07T06:19:26;81.35;;;40.92;;
37267;SDS011;23154;52.542;13.362;2024-03-07T06:21:52;81.45;;;39.70;;
37267;SDS011;23154;52.542;13.362;2024-03-07T06:24:19;88.88;;;40.72;;
37267;SDS011;23154;52.542;13.362;2024-03-07T06:26:47;82.65;;;41.08;;
37267;SDS011;23154;52.542;13.362;2024-03-07T06:29:24;90.05;;;38.97;;
37267;SDS011;23154;52.542;13.362;2024-03-07T06:31:50;72.75;;;36.42;;
37267;SDS011;23154;52.542;13.362;2024-03-07T06:34:18;79.35;;;38.13;;
37267;SDS011;23154;52.542;13.362;2024-03-07T06:36:44;70.72;;;36.17;;
37267;SDS011;23154;52.542;13.362;2024-03-07T06:39:10;72.82;;;36.10;;
37267;SDS011;23154;52.542;13.362;2024-03-07T06:41:37;70.85;;;36.88;;
37267;SDS011;23154;52.542;13.362;2024-03-07T06:44:03;77.80;;;36.08;;
37267;SDS011;23154;52.542;13.362;2024-03-07T06:46:29;76.82;;;36.42;;
37267;SDS011;23154;52.542;13.362;2024-03-07T06:48:57;71.35;;;34.40;;
37267;SDS011;23154;52.542;13.362;2024-03-07T06:51:23;63.85;;;33.15;;
37267;SDS011;23154;52.542;13.362;2024-03-07T06:53:50;70.03;;;31.45;;
37267;SDS011;23154;52.542;13.362;2024-03-07T06:56:16;62.03;;;31.35;;
37267;SDS011;23154;52.542;13.362;2024-03-07T06:58:42;64.22;;;31.70;;
37267;SDS011;23154;52.542;13.362;2024-03-07T07:01:10;60.85;;;29.98;;
37267;SDS011;23154;52.542;13.362;2024-03-07T07:03:40;67.97;;;34.28;;
37267;SDS011;23154;52.542;13.362;2024-03-07T07:06:08;70.05;;;33.55;;
37267;SDS011;23154;52.542;13.362;2024-03-07T07:08:35;67.45;;;32.00;;
37267;SDS011;23154;52.542;13.362;2024-03-07T07:11:01;66.47;;;30.13;;
37267;SDS011;23154;52.542;13.362;2024-03-07T07:13:28;66.38;;;30.02;;
37267;SDS011;23154;52.542;13.362;2024-03-07T07:15:55;64.20;;;30.30;;
37267;SDS011;23154;52.542;13.362;2024-03-07T07:18:21;53.33;;;26.98;;
37267;SDS011;23154;52.542;13.362;2024-03-07T07:20:48;55.55;;;27.23;;
37267;SDS011;23154;52.542;13.362;2024-03-07T07:23:17;55.50;;;27.98;;
37267;SDS011;23154;52.542;13.362;2024-03-07T07:25:43;58.50;;;28.02;;
37267;SDS011;23154;52.542;13.362;2024-03-07T07:28:09;53.95;;;27.58;;
37267;SDS011;23154;52.542;13.362;2024-03-07T07:30:36;47.92;;;25.67;;
37267;SDS011;23154;52.542;13.362;2024-03-07T07:33:02;51.70;;;25.25;;
37267;SDS011;23154;52.542;13.362;2024-03-07T07:35:28;56.05;;;26.77;;
37267;SDS011;23154;52.542;13.362;2024-03-07T07:37:54;54.70;;;25.35;;
37267;SDS011;23154;52.542;13.362;2024-03-07T07:40:21;54.80;;;25.98;;
37267;SDS011;23154;52.542;13.362;2024-03-07T07:42:48;60.65;;;29.63;;
37267;SDS011;23154;52.542;13.362;2024-03-07T07:45:16;57.42;;;24.55;;
37267;SDS011;23154;52.542;13.362;2024-03-07T07:47:43;45.50;;;23.52;;
37267;SDS011;23154;52.542;13.362;2024-03-07T07:50:10;49.28;;;25.20;;
37267;SDS011;23154;52.542;13.362;2024-03-07T07:52:46;49.38;;;23.20;;
37267;SDS011;23154;52.542;13.362;2024-03-07T07:55:16;45.72;;;23.45;;
37267;SDS011;23154;52.542;13.362;2024-03-07T08:00:09;53.28;;;25.58;;
37267;SDS011;23154;52.542;13.362;2024-03-07T08:02:36;45.92;;;23.55;;
37267;SDS011;23154;52.542;13.362;2024-03-07T08:05:02;44.58;;;22.83;;
37267;SDS011;23154;52.542;13.362;2024-03-07T08:07:30;52.90;;;24.98;;
37267;SDS011;23154;52.542;13.362;2024-03-07T08:09:56;46.08;;;24.20;;
37267;SDS011;23154;52.542;13.362;2024-03-07T08:12:22;43.72;;;23.80;;
37267;SDS011;23154;52.542;13.362;2024-03-07T08:14:48;42.30;;;22.60;;
37267;SDS011;23154;52.542;13.362;2024-03-07T08:17:14;49.65;;;23.77;;
37267;SDS011;23154;52.542;13.362;2024-03-07T08:19:41;43.17;;;22.83;;
37267;SDS011;23154;52.542;13.362;2024-03-07T08:22:07;42.55;;;23.00;;
37267;SDS011;23154;52.542;13.362;2024-03-07T08:24:34;57.72;;;26.33;;
37267;SDS011;23154;52.542;13.362;2024-03-07T08:27:00;44.83;;;21.30;;
37267;SDS011;23154;52.542;13.362;2024-03-07T08:29:27;48.97;;;22.40;;
37267;SDS011;23154;52.542;13.362;2024-03-07T08:31:53;47.72;;;23.27;;
37267;SDS011;23154;52.542;13.362;2024-03-07T08:34:19;36.55;;;20.00;;
37267;SDS011;23154;52.542;13.362;2024-03-07T08:36:45;34.88;;;18.98;;
37267;SDS011;23154;52.542;13.362;2024-03-07T08:39:12;38.25;;;19.85;;
37267;SDS011;23154;52.542;13.362;2024-03-07T08:41:38;42.05;;;20.63;;
37267;SDS011;23154;52.542;13.362;2024-03-07T08:44:07;43.00;;;20.55;;
37267;SDS011;23154;52.542;13.362;2024-03-07T08:46:34;38.97;;;19.88;;
37267;SDS011;23154;52.542;13.362;2024-03-07T08:49:00;36.80;;;19.50;;
37267;SDS011;23154;52.542;13.362;2024-03-07T08:51:26;35.78;;;19.30;;
37267;SDS011;23154;52.542;13.362;2024-03-07T08:53:52;37.38;;;20.00;;
37267;SDS011;23154;52.542;13.362;2024-03-07T08:56:18;34.47;;;19.17;;
37267;SDS011;23154;52.542;13.362;2024-03-07T08:58:44;57.95;;;29.58;;
37267;SDS011;23154;52.542;13.362;2024-03-07T09:01:10;58.47;;;30.45;;
37267;SDS011;23154;52.542;13.362;2024-03-07T09:03:37;41.28;;;22.92;;
37267;SDS011;23154;52.542;13.362;2024-03-07T09:06:03;36.47;;;18.83;;
37267;SDS011;23154;52.542;13.362;2024-03-07T09:08:30;34.83;;;18.75;;
37267;SDS011;23154;52.542;13.362;2024-03-07T09:10:56;31.15;;;17.58;;
37267;SDS011;23154;52.542;13.362;2024-03-07T09:13:23;32.55;;;19.15;;
37267;SDS011;23154;52.542;13.362;2024-03-07T09:15:49;39.60;;;20.80;;
37267;SDS011;23154;52.542;13.362;2024-03-07T09:18:15;33.42;;;18.90;;
37267;SDS011;23154;52.542;13.362;2024-03-07T09:20:41;34.63;;;18.40;;
37267;SDS011;23154;52.542;13.362;2024-03-07T09:23:07;34.33;;;18.73;;
37267;SDS011;23154;52.542;13.362;2024-03-07T09:25:33;34.10;;;17.63;;
37267;SDS011;23154;52.542;13.362;2024-03-07T09:27:59;35.53;;;19.00;;
37267;SDS011;23154;52.542;13.362;2024-03-07T09:30:25;31.00;;;17.60;;
37267;SDS011;23154;52.542;13.362;2024-03-07T09:32:53;29.77;;;17.23;;
37267;SDS011;23154;52.542;13.362;2024-03-07T09:37:49;32.22;;;16.27;;
37267;SDS011;23154;52.542;13.362;2024-03-07T09:40:15;32.67;;;17.55;;
37267;SDS011;23154;52.542;13.362;2024-03-07T09:42:44;30.90;;;17.17;;
37267;SDS011;23154;52.542;13.362;2024-03-07T09:45:19;36.17;;;17.52;;
37267;SDS011;23154;52.542;13.362;2024-03-07T09:47:47;30.70;;;17.63;;
37267;SDS011;23154;52.542;13.362;2024-03-07T09:50:15;28.35;;;17.27;;
37267;SDS011;23154;52.542;13.362;2024-03-07T09:52:46;31.65;;;16.70;;
37267;SDS011;23154;52.542;13.362;2024-03-07T09:55:14;30.30;;;17.10;;
37267;SDS011;23154;52.542;13.362;2024-03-07T09:57:40;32.92;;;17.90;;
37267;SDS011;23154;52.542;13.362;2024-03-07T10:00:07;30.45;;;17.95;;
37267;SDS011;23154;52.542;13.362;2024-03-07T10:02:34;30.27;;;17.65;;
37267;SDS011;23154;52.542;13.362;2024-03-07T10:05:02;31.38;;;17.20;;
37267;SDS011;23154;52.542;13.362;2024-03-07T10:07:29;28.58;;;17.42;;
37267;SDS011;23154;52.542;13.362;2024-03-07T10:09:56;36.42;;;18.10;;
37267;SDS011;23154;52.542;13.362;2024-03-07T10:12:24;29.10;;;16.50;;
37267;SDS011;23154;52.542;13.362;2024-03-07T10:14:50;34.08;;;17.25;;
37267;SDS011;23154;52.542;13.362;2024-03-07T10:17:18;27.67;;;17.33;;
37267;SDS011;23154;52.542;13.362;2024-03-07T10:19:47;39.40;;;18.65;;
37267;SDS011;23154;52.542;13.362;2024-03-07T10:22:15;30.40;;;17.63;;
37267;SDS011;23154;52.542;13.362;2024-03-07T10:24:49;34.97;;;17.40;;
37267;SDS011;23154;52.542;13.362;2024-03-07T10:27:17;29.20;;;17.13;;
37267;SDS011;23154;52.542;13.362;2024-03-07T10:29:43;29.25;;;17.70;;
37267;SDS011;23154;52.542;13.362;2024-03-07T10:32:11;35.00;;;17.63;;
37267;SDS011;23154;52.542;13.362;2024-03-07T10:34:38;31.80;;;17.92;;
37267;SDS011;23154;52.542;13.362;2024-03-07T10:37:04;34.20;;;17.13;;
37267;SDS011;23154;52.542;13.362;2024-03-07T10:39:34;32.75;;;17.02;;
37267;SDS011;23154;52.542;13.362;2024-03-07T10:42:00;27.95;;;16.05;;
37267;SDS011;23154;52.542;13.362;2024-03-07T10:46:56;28.50;;;16.63;;
37267;SDS011;23154;52.542;13.362;2024-03-07T10:49:25;31.40;;;16.88;;
37267;SDS011;23154;52.542;13.362;2024-03-07T10:52:06;30.65;;;17.73;;
37267;SDS011;23154;52.542;13.362;2024-03-07T10:59:56;28.15;;;17.45;;
37267;SDS011;23154;52.542;13.362;2024-03-07T11:04:55;30.20;;;17.67;;
37267;SDS011;23154;52.542;13.362;2024-03-07T11:07:22;29.42;;;17.38;;
37267;SDS011;23154;52.542;13.362;2024-03-07T11:09:51;29.70;;;17.42;;
37267;SDS011;23154;52.542;13.362;2024-03-07T11:12:21;33.40;;;18.90;;
37267;SDS011;23154;52.542;13.362;2024-03-07T11:14:49;30.40;;;18.55;;
37267;SDS011;23154;52.542;13.362;2024-03-07T11:17:17;33.17;;;19.42;;
37267;SDS011;23154;52.542;13.362;2024-03-07T11:19:44;33.58;;;17.63;;
37267;SDS011;23154;52.542;13.362;2024-03-07T11:22:10;29.65;;;18.75;;
37267;SDS011;23154;52.542;13.362;2024-03-07T11:24:40;25.73;;;16.83;;
37267;SDS011;23154;52.542;13.362;2024-03-07T11:27:08;28.17;;;17.58;;
37267;SDS011;23154;52.542;13.362;2024-03-07T11:29:41;31.60;;;18.73;;
37267;SDS011;23154;52.542;13.362;2024-03-07T11:32:14;31.48;;;18.73;;
37267;SDS011;23154;52.542;13.362;2024-03-07T11:34:44;27.45;;;17.20;;
37267;SDS011;23154;52.542;13.362;2024-03-07T11:37:17;28.38;;;17.80;;
37267;SDS011;23154;52.542;13.362;2024-03-07T11:39:46;29.92;;;18.98;;
37267;SDS011;23154;52.542;13.362;2024-03-07T11:42:46;28.23;;;18.58;;
37267;SDS011;23154;52.542;13.362;2024-03-07T11:45:06;29.35;;;18.27;;
37267;SDS011;23154;52.542;13.362;2024-03-07T11:47:36;29.90;;;18.02;;
37267;SDS011;23154;52.542;13.362;2024-03-07T11:50:06;28.95;;;17.83;;
37267;SDS011;23154;52.542;13.362;2024-03-07T11:55:03;29.08;;;19.23;;
37267;SDS011;23154;52.542;13.362;2024-03-07T11:57:30;33.30;;;18.35;;
37267;SDS011;23154;52.542;13.362;2024-03-07T11:59:59;28.95;;;17.65;;
37267;SDS011;23154;52.542;13.362;2024-03-07T12:02:36;30.33;;;19.02;;
37267;SDS011;23154;52.542;13.362;2024-03-07T12:05:06;29.58;;;18.25;;
37267;SDS011;23154;52.542;13.362;2024-03-07T12:07:32;32.20;;;20.00;;
37267;SDS011;23154;52.542;13.362;2024-03-07T12:10:01;28.90;;;17.25;;
37267;SDS011;23154;52.542;13.362;2024-03-07T12:12:29;30.98;;;19.25;;
37267;SDS011;23154;52.542;13.362;2024-03-07T12:14:56;31.33;;;19.67;;
37267;SDS011;23154;52.542;13.362;2024-03-07T12:17:23;30.13;;;19.08;;
37267;SDS011;23154;52.542;13.362;2024-03-07T12:19:50;29.65;;;19.13;;
37267;SDS011;23154;52.542;13.362;2024-03-07T12:22:18;32.67;;;19.05;;
37267;SDS011;23154;52.542;13.362;2024-03-07T12:24:47;28.50;;;17.83;;
37267;SDS011;23154;52.542;13.362;2024-03-07T12:27:15;29.58;;;19.73;;
37267;SDS011;23154;52.542;13.362;2024-03-07T12:29:41;26.67;;;18.13;;
37267;SDS011;23154;52.542;13.362;2024-03-07T12:32:08;30.52;;;19.52;;
37267;SDS011;23154;52.542;13.362;2024-03-07T12:34:42;32.45;;;18.45;;
37267;SDS011;23154;52.542;13.362;2024-03-07T12:37:11;29.90;;;18.73;;
37267;SDS011;23154;52.542;13.362;2024-03-07T12:39:41;32.53;;;18.55;;
37267;SDS011;23154;52.542;13.362;2024-03-07T12:42:26;32.00;;;21.05;;
37267;SDS011;23154;52.542;13.362;2024-03-07T12:44:55;31.05;;;19.80;;
37267;SDS011;23154;52.542;13.362;2024-03-07T12:47:24;27.92;;;18.33;;
37267;SDS011;23154;52.542;13.362;2024-03-07T12:49:51;27.10;;;18.83;;
37267;SDS011;23154;52.542;13.362;2024-03-07T12:52:17;32.70;;;19.48;;
37267;SDS011;23154;52.542;13.362;2024-03-07T12:54:43;31.30;;;20.00;;
37267;SDS011;23154;52.542;13.362;2024-03-07T12:57:13;30.13;;;19.85;;
37267;SDS011;23154;52.542;13.362;2024-03-07T12:59:39;29.55;;;20.48;;
37267;SDS011;23154;52.542;13.362;2024-03-07T13:02:06;31.63;;;20.45;;
37267;SDS011;23154;52.542;13.362;2024-03-07T13:04:32;29.88;;;20.38;;
37267;SDS011;23154;52.542;13.362;2024-03-07T13:06:58;32.58;;;20.30;;
37267;SDS011;23154;52.542;13.362;2024-03-07T13:09:27;32.78;;;21.08;;
37267;SDS011;23154;52.542;13.362;2024-03-07T13:11:55;30.73;;;19.30;;
37267;SDS011;23154;52.542;13.362;2024-03-07T13:14:21;33.65;;;20.23;;
37267;SDS011;23154;52.542;13.362;2024-03-07T13:16:47;31.27;;;19.63;;
37267;SDS011;23154;52.542;13.362;2024-03-07T13:19:15;29.30;;;19.40;;
37267;SDS011;23154;52.542;13.362;2024-03-07T13:21:45;30.83;;;19.95;;
37267;SDS011;23154;52.542;13.362;2024-03-07T13:24:11;34.55;;;20.60;;
37267;SDS011;23154;52.542;13.362;2024-03-07T13:26:38;31.60;;;21.80;;
37267;SDS011;23154;52.542;13.362;2024-03-07T13:29:04;33.53;;;20.98;;
37267;SDS011;23154;52.542;13.362;2024-03-07T13:31:30;53.15;;;29.83;;
37267;SDS011;23154;52.542;13.362;2024-03-07T13:33:56;32.45;;;20.73;;
37267;SDS011;23154;52.542;13.362;2024-03-07T13:36:22;31.73;;;20.27;;
37267;SDS011;23154;52.542;13.362;2024-03-07T13:38:49;31.05;;;20.17;;
37267;SDS011;23154;52.542;13.362;2024-03-07T13:41:20;33.85;;;21.20;;
37267;SDS011;23154;52.542;13.362;2024-03-07T13:43:46;30.73;;;21.48;;
37267;SDS011;23154;52.542;13.362;2024-03-07T13:46:13;34.28;;;20.55;;
37267;SDS011;23154;52.542;13.362;2024-03-07T13:48:40;32.95;;;20.55;;
37267;SDS011;23154;52.542;13.362;2024-03-07T13:51:07;32.38;;;21.48;;
37267;SDS011;23154;52.542;13.362;2024-03-07T13:53:33;34.78;;;21.33;;
37267;SDS011;23154;52.542;13.362;2024-03-07T14:14:34;34.35;;;22.73;;
37267;SDS011;23154;52.542;13.362;2024-03-07T14:22:02;34.95;;;23.20;;
37267;SDS011;23154;52.542;13.362;2024-03-07T14:32:08;44.75;;;22.45;;
37267;SDS011;23154;52.542;13.362;2024-03-07T14:34:38;31.98;;;21.92;;
37267;SDS011;23154;52.542;13.362;2024-03-07T14:37:25;35.63;;;21.48;;
37267;SDS011;23154;52.542;13.362;2024-03-07T14:39:52;33.92;;;22.05;;
37267;SDS011;23154;52.542;13.362;2024-03-07T14:42:19;33.08;;;21.10;;
37267;SDS011;23154;52.542;13.362;2024-03-07T14:44:45;34.40;;;22.05;;
37267;SDS011;23154;52.542;13.362;2024-03-07T14:47:13;30.58;;;21.10;;
37267;SDS011;23154;52.542;13.362;2024-03-07T14:49:40;30.73;;;20.20;;
37267;SDS011;23154;52.542;13.362;2024-03-07T14:52:07;32.83;;;21.25;;
37267;SDS011;23154;52.542;13.362;2024-03-07T14:54:37;31.30;;;20.33;;